sensor_id;sensor_type;location;lat;lon;timestamp;P1;durP1;ratioP1;P2;durP2;ratioP2
43226;SDS011;28839;52.404;9.808;2023-04-15T00:03:58;9.80;;;6.18;;
43226;SDS011;28839;52.404;9.808;2023-04-15T00:10:52;8.48;;;7.00;;
43226;SDS011;28839;52.404;9.808;2023-04-15T00:17:48;8.20;;;6.43;;
43226;SDS011;28839;52.404;9.808;2023-04-15T00:24:44;11.85;;;6.72;;
43226;SDS011;28839;52.404;9.808;2023-04-15T00:31:38;7.93;;;5.18;;
43226;SDS011;28839;52.404;9.808;2023-04-15T00:38:31;8.15;;;6.00;;
43226;SDS011;28839;52.404;9.808;2023-04-15T00:45:27;8.15;;;6.05;;
43226;SDS011;28839;52.404;9.808;2023-04-15T00:52:21;7.60;;;6.10;;
43226;SDS011;28839;52.404;9.808;2023-04-15T00:59:15;10.38;;;7.15;;
43226;SDS011;28839;52.404;9.808;2023-04-15T01:06:12;10.50;;;8.30;;
43226;SDS011;28839;52.404;9.808;2023-04-15T01:13:06;14.50;;;8.45;;
43226;SDS011;28839;52.404;9.808;2023-04-15T01:20:00;14.15;;;7.90;;
43226;SDS011;28839;52.404;9.808;2023-04-15T01:26:55;11.03;;;8.97;;
43226;SDS011;28839;52.404;9.808;2023-04-15T01:33:49;12.20;;;9.63;;
43226;SDS011;28839;52.404;9.808;2023-04-15T01:40:43;11.97;;;8.93;;
43226;SDS011;28839;52.404;9.808;2023-04-15T01:47:39;13.25;;;9.63;;
43226;SDS011;28839;52.404;9.808;2023-04-15T01:54:32;13.93;;;10.75;;
43226;SDS011;28839;52.404;9.808;2023-04-15T02:01:26;15.45;;;10.23;;
43226;SDS011;28839;52.404;9.808;2023-04-15T02:08:21;14.90;;;10.45;;
43226;SDS011;28839;52.404;9.808;2023-04-15T02:15:15;19.67;;;10.73;;
43226;SDS011;28839;52.404;9.808;2023-04-15T02:22:09;13.70;;;10.82;;
43226;SDS011;28839;52.404;9.808;2023-04-15T02:29:10;17.58;;;11.73;;
43226;SDS011;28839;52.404;9.808;2023-04-15T02:36:04;15.55;;;11.75;;
43226;SDS011;28839;52.404;9.808;2023-04-15T02:42:58;17.93;;;12.63;;
43226;SDS011;28839;52.404;9.808;2023-04-15T02:49:54;16.95;;;11.73;;
43226;SDS011;28839;52.404;9.808;2023-04-15T02:56:49;18.27;;;12.73;;
43226;SDS011;28839;52.404;9.808;2023-04-15T03:03:46;18.75;;;13.40;;
43226;SDS011;28839;52.404;9.808;2023-04-15T03:10:41;25.17;;;13.93;;
43226;SDS011;28839;52.404;9.808;2023-04-15T03:17:35;22.77;;;15.35;;
43226;SDS011;28839;52.404;9.808;2023-04-15T03:24:29;24.08;;;15.35;;
43226;SDS011;28839;52.404;9.808;2023-04-15T03:31:24;23.33;;;16.50;;
43226;SDS011;28839;52.404;9.808;2023-04-15T03:38:17;22.80;;;17.55;;
43226;SDS011;28839;52.404;9.808;2023-04-15T03:45:11;26.20;;;16.73;;
43226;SDS011;28839;52.404;9.808;2023-04-15T03:52:06;28.38;;;18.27;;
43226;SDS011;28839;52.404;9.808;2023-04-15T03:59:00;26.95;;;19.00;;
43226;SDS011;28839;52.404;9.808;2023-04-15T04:05:54;29.75;;;18.87;;
43226;SDS011;28839;52.404;9.808;2023-04-15T04:12:49;29.83;;;19.73;;
43226;SDS011;28839;52.404;9.808;2023-04-15T04:26:37;32.30;;;19.92;;
43226;SDS011;28839;52.404;9.808;2023-04-15T04:33:32;36.22;;;21.10;;
43226;SDS011;28839;52.404;9.808;2023-04-15T04:40:26;32.75;;;21.52;;
43226;SDS011;28839;52.404;9.808;2023-04-15T04:47:20;33.22;;;20.55;;
43226;SDS011;28839;52.404;9.808;2023-04-15T04:54:15;39.65;;;21.90;;
43226;SDS011;28839;52.404;9.808;2023-04-15T05:01:09;34.70;;;22.58;;
43226;SDS011;28839;52.404;9.808;2023-04-15T05:08:04;33.88;;;21.62;;
43226;SDS011;28839;52.404;9.808;2023-04-15T05:14:59;35.00;;;21.70;;
43226;SDS011;28839;52.404;9.808;2023-04-15T05:21:53;33.08;;;22.40;;
43226;SDS011;28839;52.404;9.808;2023-04-15T05:28:47;35.58;;;23.95;;
43226;SDS011;28839;52.404;9.808;2023-04-15T05:35:42;33.67;;;20.10;;
43226;SDS011;28839;52.404;9.808;2023-04-15T05:42:36;31.45;;;19.48;;
43226;SDS011;28839;52.404;9.808;2023-04-15T05:49:30;29.73;;;19.75;;
43226;SDS011;28839;52.404;9.808;2023-04-15T05:56:25;26.50;;;16.45;;
43226;SDS011;28839;52.404;9.808;2023-04-15T06:03:19;28.20;;;17.90;;
43226;SDS011;28839;52.404;9.808;2023-04-15T06:10:12;23.65;;;15.15;;
43226;SDS011;28839;52.404;9.808;2023-04-15T06:17:08;23.50;;;16.02;;
43226;SDS011;28839;52.404;9.808;2023-04-15T06:24:01;22.30;;;15.93;;
43226;SDS011;28839;52.404;9.808;2023-04-15T06:30:55;17.70;;;13.10;;
43226;SDS011;28839;52.404;9.808;2023-04-15T06:37:51;18.45;;;12.88;;
43226;SDS011;28839;52.404;9.808;2023-04-15T06:44:44;18.58;;;12.82;;
43226;SDS011;28839;52.404;9.808;2023-04-15T06:51:38;17.12;;;11.85;;
43226;SDS011;28839;52.404;9.808;2023-04-15T06:58:34;15.48;;;11.90;;
43226;SDS011;28839;52.404;9.808;2023-04-15T07:05:28;16.30;;;11.27;;
43226;SDS011;28839;52.404;9.808;2023-04-15T07:12:22;15.63;;;10.47;;
43226;SDS011;28839;52.404;9.808;2023-04-15T07:19:17;14.38;;;9.50;;
43226;SDS011;28839;52.404;9.808;2023-04-15T07:26:11;13.38;;;10.02;;
43226;SDS011;28839;52.404;9.808;2023-04-15T07:33:05;11.93;;;9.27;;
43226;SDS011;28839;52.404;9.808;2023-04-15T07:40:00;13.52;;;9.45;;
43226;SDS011;28839;52.404;9.808;2023-04-15T07:46:55;13.32;;;9.13;;
43226;SDS011;28839;52.404;9.808;2023-04-15T07:53:50;9.40;;;7.43;;
43226;SDS011;28839;52.404;9.808;2023-04-15T08:00:45;9.23;;;7.45;;
43226;SDS011;28839;52.404;9.808;2023-04-15T08:07:39;8.75;;;6.93;;
43226;SDS011;28839;52.404;9.808;2023-04-15T08:14:33;8.98;;;6.87;;
43226;SDS011;28839;52.404;9.808;2023-04-15T08:21:29;7.75;;;6.15;;
43226;SDS011;28839;52.404;9.808;2023-04-15T08:28:22;7.70;;;6.25;;
43226;SDS011;28839;52.404;9.808;2023-04-15T08:35:16;7.35;;;6.45;;
43226;SDS011;28839;52.404;9.808;2023-04-15T08:42:15;6.90;;;5.80;;
43226;SDS011;28839;52.404;9.808;2023-04-15T08:49:10;5.75;;;4.90;;
43226;SDS011;28839;52.404;9.808;2023-04-15T08:56:05;7.68;;;5.45;;
43226;SDS011;28839;52.404;9.808;2023-04-15T09:03:03;6.87;;;5.35;;
43226;SDS011;28839;52.404;9.808;2023-04-15T09:09:57;12.00;;;5.90;;
43226;SDS011;28839;52.404;9.808;2023-04-15T09:16:58;7.45;;;5.57;;
43226;SDS011;28839;52.404;9.808;2023-04-15T09:23:54;10.57;;;6.40;;
43226;SDS011;28839;52.404;9.808;2023-04-15T09:30:50;9.07;;;7.10;;
43226;SDS011;28839;52.404;9.808;2023-04-15T09:45:08;11.52;;;8.57;;
43226;SDS011;28839;52.404;9.808;2023-04-15T09:52:03;14.57;;;9.73;;
43226;SDS011;28839;52.404;9.808;2023-04-15T09:58:57;16.20;;;10.23;;
43226;SDS011;28839;52.404;9.808;2023-04-15T10:05:53;21.08;;;11.20;;
43226;SDS011;28839;52.404;9.808;2023-04-15T10:12:48;21.67;;;13.70;;
43226;SDS011;28839;52.404;9.808;2023-04-15T10:19:44;26.75;;;14.98;;
43226;SDS011;28839;52.404;9.808;2023-04-15T10:33:34;31.80;;;18.62;;
43226;SDS011;28839;52.404;9.808;2023-04-15T10:40:30;36.88;;;19.90;;
43226;SDS011;28839;52.404;9.808;2023-04-15T10:47:26;37.10;;;20.88;;
43226;SDS011;28839;52.404;9.808;2023-04-15T10:54:29;42.25;;;22.92;;
43226;SDS011;28839;52.404;9.808;2023-04-15T11:01:37;44.55;;;24.67;;
43226;SDS011;28839;52.404;9.808;2023-04-15T11:08:54;46.78;;;26.60;;
43226;SDS011;28839;52.404;9.808;2023-04-15T11:15:50;51.10;;;26.10;;
43226;SDS011;28839;52.404;9.808;2023-04-15T11:22:48;59.17;;;30.77;;
43226;SDS011;28839;52.404;9.808;2023-04-15T11:29:45;53.70;;;30.92;;
43226;SDS011;28839;52.404;9.808;2023-04-15T11:36:38;64.97;;;33.15;;
43226;SDS011;28839;52.404;9.808;2023-04-15T11:43:36;65.37;;;34.90;;
43226;SDS011;28839;52.404;9.808;2023-04-15T11:50:31;67.85;;;35.42;;
43226;SDS011;28839;52.404;9.808;2023-04-15T11:57:29;70.18;;;37.67;;
43226;SDS011;28839;52.404;9.808;2023-04-15T12:04:24;73.12;;;36.75;;
43226;SDS011;28839;52.404;9.808;2023-04-15T12:11:19;71.43;;;40.12;;
43226;SDS011;28839;52.404;9.808;2023-04-15T12:18:18;71.93;;;40.10;;
43226;SDS011;28839;52.404;9.808;2023-04-15T12:25:12;76.30;;;42.83;;
43226;SDS011;28839;52.404;9.808;2023-04-15T12:32:08;77.87;;;43.22;;
43226;SDS011;28839;52.404;9.808;2023-04-15T12:39:03;72.95;;;40.78;;
43226;SDS011;28839;52.404;9.808;2023-04-15T12:45:57;71.70;;;40.47;;
43226;SDS011;28839;52.404;9.808;2023-04-15T12:52:53;69.93;;;38.33;;
43226;SDS011;28839;52.404;9.808;2023-04-15T12:59:47;67.57;;;38.30;;
43226;SDS011;28839;52.404;9.808;2023-04-15T13:06:41;64.05;;;39.35;;
43226;SDS011;28839;52.404;9.808;2023-04-15T13:13:37;58.80;;;36.15;;
43226;SDS011;28839;52.404;9.808;2023-04-15T13:20:30;62.92;;;38.65;;
43226;SDS011;28839;52.404;9.808;2023-04-15T13:27:24;52.85;;;33.92;;
43226;SDS011;28839;52.404;9.808;2023-04-15T13:34:19;52.08;;;34.38;;
43226;SDS011;28839;52.404;9.808;2023-04-15T13:41:13;44.97;;;30.98;;
43226;SDS011;28839;52.404;9.808;2023-04-15T13:48:07;45.50;;;30.27;;
43226;SDS011;28839;52.404;9.808;2023-04-15T13:55:03;41.23;;;29.23;;
43226;SDS011;28839;52.404;9.808;2023-04-15T14:01:57;40.55;;;25.73;;
43226;SDS011;28839;52.404;9.808;2023-04-15T14:08:51;33.73;;;23.40;;
43226;SDS011;28839;52.404;9.808;2023-04-15T14:15:46;38.40;;;23.40;;
43226;SDS011;28839;52.404;9.808;2023-04-15T14:22:40;32.20;;;22.70;;
43226;SDS011;28839;52.404;9.808;2023-04-15T14:29:34;31.37;;;22.20;;
43226;SDS011;28839;52.404;9.808;2023-04-15T14:36:29;30.55;;;22.15;;
43226;SDS011;28839;52.404;9.808;2023-04-15T14:43:24;29.65;;;22.45;;
43226;SDS011;28839;52.404;9.808;2023-04-15T14:50:18;28.23;;;20.80;;
43226;SDS011;28839;52.404;9.808;2023-04-15T14:57:13;28.93;;;21.50;;
43226;SDS011;28839;52.404;9.808;2023-04-15T15:04:08;27.83;;;21.02;;
43226;SDS011;28839;52.404;9.808;2023-04-15T15:11:02;24.80;;;18.98;;
43226;SDS011;28839;52.404;9.808;2023-04-15T15:17:58;22.40;;;18.30;;
43226;SDS011;28839;52.404;9.808;2023-04-15T15:24:52;26.08;;;18.55;;
43226;SDS011;28839;52.404;9.808;2023-04-15T15:31:46;25.47;;;20.13;;
43226;SDS011;28839;52.404;9.808;2023-04-15T15:38:41;28.80;;;19.70;;
43226;SDS011;28839;52.404;9.808;2023-04-15T15:45:35;27.23;;;19.70;;
43226;SDS011;28839;52.404;9.808;2023-04-15T15:52:29;26.90;;;20.20;;
43226;SDS011;28839;52.404;9.808;2023-04-15T15:59:24;29.63;;;21.90;;
43226;SDS011;28839;52.404;9.808;2023-04-15T16:06:18;32.90;;;24.52;;
43226;SDS011;28839;52.404;9.808;2023-04-15T16:13:11;32.60;;;23.63;;
43226;SDS011;28839;52.404;9.808;2023-04-15T16:20:07;29.27;;;22.43;;
43226;SDS011;28839;52.404;9.808;2023-04-15T16:27:01;35.55;;;25.17;;
43226;SDS011;28839;52.404;9.808;2023-04-15T16:33:55;38.13;;;26.20;;
43226;SDS011;28839;52.404;9.808;2023-04-15T16:40:51;36.73;;;27.00;;
43226;SDS011;28839;52.404;9.808;2023-04-15T16:47:44;37.42;;;27.48;;
43226;SDS011;28839;52.404;9.808;2023-04-15T16:54:38;22.17;;;16.10;;
43226;SDS011;28839;52.404;9.808;2023-04-15T17:01:33;19.37;;;15.57;;
43226;SDS011;28839;52.404;9.808;2023-04-15T17:08:27;16.90;;;14.15;;
43226;SDS011;28839;52.404;9.808;2023-04-15T17:15:21;14.87;;;13.02;;
43226;SDS011;28839;52.404;9.808;2023-04-15T17:22:16;17.17;;;14.07;;
43226;SDS011;28839;52.404;9.808;2023-04-15T17:29:10;18.62;;;14.55;;
43226;SDS011;28839;52.404;9.808;2023-04-15T17:36:04;17.73;;;14.43;;
43226;SDS011;28839;52.404;9.808;2023-04-15T17:43:00;20.97;;;14.87;;
43226;SDS011;28839;52.404;9.808;2023-04-15T17:49:53;17.25;;;14.80;;
43226;SDS011;28839;52.404;9.808;2023-04-15T17:56:47;22.10;;;15.73;;
43226;SDS011;28839;52.404;9.808;2023-04-15T18:03:43;21.90;;;16.57;;
43226;SDS011;28839;52.404;9.808;2023-04-15T18:10:37;21.65;;;15.00;;
43226;SDS011;28839;52.404;9.808;2023-04-15T18:17:31;18.48;;;14.95;;
43226;SDS011;28839;52.404;9.808;2023-04-15T18:24:26;20.13;;;15.57;;
43226;SDS011;28839;52.404;9.808;2023-04-15T18:31:20;20.85;;;16.95;;
43226;SDS011;28839;52.404;9.808;2023-04-15T18:38:14;21.07;;;17.30;;
43226;SDS011;28839;52.404;9.808;2023-04-15T18:45:09;20.48;;;17.27;;
43226;SDS011;28839;52.404;9.808;2023-04-15T18:52:03;22.48;;;18.08;;
43226;SDS011;28839;52.404;9.808;2023-04-15T18:58:57;20.43;;;17.00;;
43226;SDS011;28839;52.404;9.808;2023-04-15T19:05:53;23.70;;;17.07;;
43226;SDS011;28839;52.404;9.808;2023-04-15T19:12:47;21.62;;;17.98;;
43226;SDS011;28839;52.404;9.808;2023-04-15T19:19:41;22.93;;;18.90;;
43226;SDS011;28839;52.404;9.808;2023-04-15T19:26:37;24.90;;;17.33;;
43226;SDS011;28839;52.404;9.808;2023-04-15T19:33:30;19.80;;;16.35;;
43226;SDS011;28839;52.404;9.808;2023-04-15T19:40:24;21.73;;;16.60;;
43226;SDS011;28839;52.404;9.808;2023-04-15T19:47:20;25.17;;;20.40;;
43226;SDS011;28839;52.404;9.808;2023-04-15T19:54:14;20.35;;;16.77;;
43226;SDS011;28839;52.404;9.808;2023-04-15T20:01:08;18.53;;;16.53;;
43226;SDS011;28839;52.404;9.808;2023-04-15T20:08:03;19.98;;;15.90;;
43226;SDS011;28839;52.404;9.808;2023-04-15T20:14:57;21.15;;;16.30;;
43226;SDS011;28839;52.404;9.808;2023-04-15T20:21:51;20.93;;;17.23;;
43226;SDS011;28839;52.404;9.808;2023-04-15T20:28:46;19.90;;;16.53;;
43226;SDS011;28839;52.404;9.808;2023-04-15T20:35:40;20.48;;;15.60;;
43226;SDS011;28839;52.404;9.808;2023-04-15T20:42:34;19.65;;;16.00;;
43226;SDS011;28839;52.404;9.808;2023-04-15T20:49:31;17.80;;;15.77;;
43226;SDS011;28839;52.404;9.808;2023-04-15T20:56:25;21.35;;;16.70;;
43226;SDS011;28839;52.404;9.808;2023-04-15T21:03:19;21.05;;;16.15;;
43226;SDS011;28839;52.404;9.808;2023-04-15T21:10:14;17.95;;;15.35;;
43226;SDS011;28839;52.404;9.808;2023-04-15T21:17:08;20.25;;;16.65;;
43226;SDS011;28839;52.404;9.808;2023-04-15T21:24:02;19.87;;;16.20;;
43226;SDS011;28839;52.404;9.808;2023-04-15T21:30:59;19.17;;;16.12;;
43226;SDS011;28839;52.404;9.808;2023-04-15T21:37:53;21.58;;;17.08;;
43226;SDS011;28839;52.404;9.808;2023-04-15T21:44:47;21.53;;;18.30;;
43226;SDS011;28839;52.404;9.808;2023-04-15T21:51:42;28.10;;;19.12;;
43226;SDS011;28839;52.404;9.808;2023-04-15T21:58:36;27.77;;;20.55;;
43226;SDS011;28839;52.404;9.808;2023-04-15T22:05:30;25.77;;;20.02;;
43226;SDS011;28839;52.404;9.808;2023-04-15T22:12:25;28.57;;;21.17;;
43226;SDS011;28839;52.404;9.808;2023-04-15T22:19:19;27.00;;;21.37;;
43226;SDS011;28839;52.404;9.808;2023-04-15T22:26:13;36.95;;;26.08;;
43226;SDS011;28839;52.404;9.808;2023-04-15T22:33:08;32.47;;;23.90;;
43226;SDS011;28839;52.404;9.808;2023-04-15T22:40:02;32.22;;;22.90;;
43226;SDS011;28839;52.404;9.808;2023-04-15T22:46:56;28.27;;;23.77;;
43226;SDS011;28839;52.404;9.808;2023-04-15T22:53:52;34.13;;;25.05;;
43226;SDS011;28839;52.404;9.808;2023-04-15T23:00:46;35.05;;;27.33;;
43226;SDS011;28839;52.404;9.808;2023-04-15T23:07:40;36.63;;;27.35;;
43226;SDS011;28839;52.404;9.808;2023-04-15T23:14:35;36.08;;;27.00;;
43226;SDS011;28839;52.404;9.808;2023-04-15T23:21:29;41.33;;;29.45;;
43226;SDS011;28839;52.404;9.808;2023-04-15T23:28:23;34.92;;;27.87;;
43226;SDS011;28839;52.404;9.808;2023-04-15T23:35:18;36.05;;;26.73;;
43226;SDS011;28839;52.404;9.808;2023-04-15T23:42:12;38.83;;;28.87;;
43226;SDS011;28839;52.404;9.808;2023-04-15T23:49:06;34.50;;;28.35;;
43226;SDS011;28839;52.404;9.808;2023-04-15T23:56:01;39.63;;;28.60;;
